sensor_id;sensor_type;location;lat;lon;timestamp;pressure;altitude;pressure_sealevel;temperature;humidity
66164;BME280;52962;51.088;3.096;2022-08-02T00:00:11;101536.56;;;20.27;100.00
66164;BME280;52962;51.088;3.096;2022-08-02T00:02:39;101537.44;;;20.27;100.00
66164;BME280;52962;51.088;3.096;2022-08-02T00:05:09;101536.59;;;20.23;100.00
66164;BME280;52962;51.088;3.096;2022-08-02T00:07:37;101539.28;;;20.20;100.00
66164;BME280;52962;51.088;3.096;2022-08-02T00:10:07;101541.97;;;20.17;100.00
66164;BME280;52962;51.088;3.096;2022-08-02T00:12:36;101549.16;;;20.12;100.00
66164;BME280;52962;51.088;3.096;2022-08-02T00:15:05;101554.53;;;20.09;100.00
66164;BME280;52962;51.088;3.096;2022-08-02T00:17:33;101549.19;;;20.06;100.00
66164;BME280;52962;51.088;3.096;2022-08-02T00:20:01;101555.47;;;20.04;100.00
66164;BME280;52962;51.088;3.096;2022-08-02T00:22:31;101548.34;;;20.01;100.00
66164;BME280;52962;51.088;3.096;2022-08-02T00:24:58;101544.81;;;19.99;100.00
66164;BME280;52962;51.088;3.096;2022-08-02T00:27:26;101541.25;;;19.96;100.00
66164;BME280;52962;51.088;3.096;2022-08-02T00:29:54;101538.63;;;19.91;100.00
66164;BME280;52962;51.088;3.096;2022-08-02T00:32:22;101537.75;;;19.86;100.00
66164;BME280;52962;51.088;3.096;2022-08-02T00:34:50;101542.25;;;19.78;100.00
66164;BME280;52962;51.088;3.096;2022-08-02T00:37:18;101535.19;;;19.74;100.00
66164;BME280;52962;51.088;3.096;2022-08-02T00:39:48;101526.31;;;19.72;100.00
66164;BME280;52962;51.088;3.096;2022-08-02T00:42:15;101530.75;;;19.71;100.00
66164;BME280;52962;51.088;3.096;2022-08-02T00:44:43;101536.16;;;19.65;100.00
66164;BME280;52962;51.088;3.096;2022-08-02T00:47:11;101529.91;;;19.63;100.00
66164;BME280;52962;51.088;3.096;2022-08-02T00:49:45;101526.41;;;19.56;100.00
66164;BME280;52962;51.088;3.096;2022-08-02T00:52:13;101531.75;;;19.49;100.00
66164;BME280;52962;51.088;3.096;2022-08-02T00:54:41;101523.75;;;19.47;100.00
66164;BME280;52962;51.088;3.096;2022-08-02T00:57:10;101539.78;;;19.43;100.00
66164;BME280;52962;51.088;3.096;2022-08-02T00:59:37;101528.22;;;19.45;100.00
66164;BME280;52962;51.088;3.096;2022-08-02T01:02:07;101522.84;;;19.47;100.00
66164;BME280;52962;51.088;3.096;2022-08-02T01:04:36;101519.28;;;19.49;100.00
66164;BME280;52962;51.088;3.096;2022-08-02T01:07:04;101513.97;;;19.43;100.00
66164;BME280;52962;51.088;3.096;2022-08-02T01:09:40;101514.00;;;19.39;100.00
66164;BME280;52962;51.088;3.096;2022-08-02T01:12:10;101508.69;;;19.31;100.00
66164;BME280;52962;51.088;3.096;2022-08-02T01:14:39;101508.72;;;19.22;100.00
66164;BME280;52962;51.088;3.096;2022-08-02T01:17:13;101501.59;;;19.22;100.00
66164;BME280;52962;51.088;3.096;2022-08-02T01:19:50;101494.50;;;19.23;100.00
66164;BME280;52962;51.088;3.096;2022-08-02T01:22:37;101490.94;;;19.18;100.00
66164;BME280;52962;51.088;3.096;2022-08-02T01:28:33;101505.22;;;19.11;100.00
66164;BME280;52962;51.088;3.096;2022-08-02T01:31:09;101520.38;;;19.04;100.00
66164;BME280;52962;51.088;3.096;2022-08-02T01:33:43;101528.41;;;19.00;100.00
66164;BME280;52962;51.088;3.096;2022-08-02T01:36:13;101530.19;;;18.98;100.00
66164;BME280;52962;51.088;3.096;2022-08-02T01:38:46;101540.88;;;18.96;100.00
66164;BME280;52962;51.088;3.096;2022-08-02T01:41:17;101536.44;;;18.89;100.00
66164;BME280;52962;51.088;3.096;2022-08-02T01:43:49;101533.78;;;18.87;100.00
66164;BME280;52962;51.088;3.096;2022-08-02T01:46:19;101515.97;;;18.89;100.00
66164;BME280;52962;51.088;3.096;2022-08-02T01:48:49;101499.97;;;18.89;100.00
66164;BME280;52962;51.088;3.096;2022-08-02T01:51:19;101492.88;;;18.82;100.00
66164;BME280;52962;51.088;3.096;2022-08-02T01:54:11;101483.97;;;18.80;100.00
66164;BME280;52962;51.088;3.096;2022-08-02T01:56:41;101488.44;;;18.72;100.00
66164;BME280;52962;51.088;3.096;2022-08-02T01:59:13;101492.94;;;18.67;100.00
66164;BME280;52962;51.088;3.096;2022-08-02T02:01:44;101484.94;;;18.66;100.00
66164;BME280;52962;51.088;3.096;2022-08-02T02:04:15;101481.41;;;18.62;100.00
66164;BME280;52962;51.088;3.096;2022-08-02T02:06:44;101492.94;;;18.59;100.00
66164;BME280;52962;51.088;3.096;2022-08-02T02:09:14;101492.94;;;18.58;100.00
66164;BME280;52962;51.088;3.096;2022-08-02T02:11:43;101487.63;;;18.61;100.00
66164;BME280;52962;51.088;3.096;2022-08-02T02:14:34;101487.63;;;18.61;100.00
66164;BME280;52962;51.088;3.096;2022-08-02T02:17:03;101493.81;;;18.58;100.00
66164;BME280;52962;51.088;3.096;2022-08-02T02:19:35;101492.94;;;18.55;100.00
66164;BME280;52962;51.088;3.096;2022-08-02T02:22:03;101484.94;;;18.56;100.00
66164;BME280;52962;51.088;3.096;2022-08-02T02:24:32;101497.38;;;18.56;100.00
66164;BME280;52962;51.088;3.096;2022-08-02T02:27:02;101493.81;;;18.55;100.00
66164;BME280;52962;51.088;3.096;2022-08-02T02:29:34;101489.38;;;18.56;100.00
66164;BME280;52962;51.088;3.096;2022-08-02T02:32:03;101486.72;;;18.56;100.00
66164;BME280;52962;51.088;3.096;2022-08-02T02:34:36;101484.06;;;18.53;100.00
66164;BME280;52962;51.088;3.096;2022-08-02T02:37:07;101485.81;;;18.52;100.00
66164;BME280;52962;51.088;3.096;2022-08-02T02:39:40;101492.94;;;18.52;100.00
66164;BME280;52962;51.088;3.096;2022-08-02T02:42:12;101490.28;;;18.49;100.00
66164;BME280;52962;51.088;3.096;2022-08-02T02:44:43;101487.63;;;18.46;100.00
66164;BME280;52962;51.088;3.096;2022-08-02T02:47:14;101487.63;;;18.46;100.00
66164;BME280;52962;51.088;3.096;2022-08-02T02:49:45;101487.63;;;18.46;100.00
66164;BME280;52962;51.088;3.096;2022-08-02T02:52:15;101485.84;;;18.45;100.00
66164;BME280;52962;51.088;3.096;2022-08-02T02:54:46;101482.28;;;18.40;100.00
66164;BME280;52962;51.088;3.096;2022-08-02T02:57:14;101487.63;;;18.38;100.00
66164;BME280;52962;51.088;3.096;2022-08-02T02:59:44;101478.75;;;18.35;100.00
66164;BME280;52962;51.088;3.096;2022-08-02T03:02:16;101469.88;;;18.28;100.00
66164;BME280;52962;51.088;3.096;2022-08-02T03:04:44;101465.44;;;18.24;100.00
66164;BME280;52962;51.088;3.096;2022-08-02T03:07:24;101468.09;;;18.19;100.00
66164;BME280;52962;51.088;3.096;2022-08-02T03:09:52;101468.09;;;18.16;100.00
66164;BME280;52962;51.088;3.096;2022-08-02T03:12:22;101477.00;;;18.12;100.00
66164;BME280;52962;51.088;3.096;2022-08-02T03:15:00;101480.53;;;18.11;100.00
66164;BME280;52962;51.088;3.096;2022-08-02T03:17:40;101481.44;;;18.06;100.00
66164;BME280;52962;51.088;3.096;2022-08-02T03:20:11;101473.44;;;18.01;100.00
66164;BME280;52962;51.088;3.096;2022-08-02T03:22:39;101478.75;;;17.98;100.00
66164;BME280;52962;51.088;3.096;2022-08-02T03:25:08;101471.66;;;17.94;100.00
66164;BME280;52962;51.088;3.096;2022-08-02T03:27:36;101456.56;;;17.91;100.00
66164;BME280;52962;51.088;3.096;2022-08-02T03:30:08;101462.78;;;17.87;100.00
66164;BME280;52962;51.088;3.096;2022-08-02T03:32:38;101453.00;;;17.85;100.00
66164;BME280;52962;51.088;3.096;2022-08-02T03:35:09;101454.78;;;17.84;100.00
66164;BME280;52962;51.088;3.096;2022-08-02T03:37:37;101461.88;;;17.82;100.00
66164;BME280;52962;51.088;3.096;2022-08-02T03:40:08;101453.00;;;17.77;100.00
66164;BME280;52962;51.088;3.096;2022-08-02T03:42:38;101452.09;;;17.74;100.00
66164;BME280;52962;51.088;3.096;2022-08-02T03:45:09;101453.88;;;17.69;100.00
66164;BME280;52962;51.088;3.096;2022-08-02T03:47:39;101458.31;;;17.63;100.00
66164;BME280;52962;51.088;3.096;2022-08-02T03:50:11;101460.97;;;17.57;100.00
66164;BME280;52962;51.088;3.096;2022-08-02T03:52:40;101456.53;;;17.58;100.00
66164;BME280;52962;51.088;3.096;2022-08-02T03:55:09;101458.31;;;17.57;100.00
66164;BME280;52962;51.088;3.096;2022-08-02T03:57:38;101459.19;;;17.56;100.00
66164;BME280;52962;51.088;3.096;2022-08-02T04:00:09;101460.97;;;17.51;100.00
66164;BME280;52962;51.088;3.096;2022-08-02T04:02:38;101463.63;;;17.51;100.00
66164;BME280;52962;51.088;3.096;2022-08-02T04:05:07;101458.28;;;17.50;100.00
66164;BME280;52962;51.088;3.096;2022-08-02T04:07:35;101460.94;;;17.48;100.00
66164;BME280;52962;51.088;3.096;2022-08-02T04:10:23;101464.50;;;17.47;100.00
66164;BME280;52962;51.088;3.096;2022-08-02T04:12:51;101460.06;;;17.49;100.00
66164;BME280;52962;51.088;3.096;2022-08-02T04:15:22;101473.38;;;17.43;100.00
66164;BME280;52962;51.088;3.096;2022-08-02T04:17:53;101475.13;;;17.41;100.00
66164;BME280;52962;51.088;3.096;2022-08-02T04:20:26;101474.25;;;17.41;100.00
66164;BME280;52962;51.088;3.096;2022-08-02T04:22:58;101469.81;;;17.41;100.00
66164;BME280;52962;51.088;3.096;2022-08-02T04:25:27;101464.47;;;17.38;100.00
66164;BME280;52962;51.088;3.096;2022-08-02T04:28:06;101484.88;;;17.38;100.00
66164;BME280;52962;51.088;3.096;2022-08-02T04:30:45;101474.25;;;17.36;100.00
66164;BME280;52962;51.088;3.096;2022-08-02T04:33:13;101482.22;;;17.36;100.00
66164;BME280;52962;51.088;3.096;2022-08-02T04:35:42;101476.00;;;17.37;100.00
66164;BME280;52962;51.088;3.096;2022-08-02T04:38:11;101471.56;;;17.35;100.00
66164;BME280;52962;51.088;3.096;2022-08-02T04:40:39;101471.56;;;17.36;100.00
66164;BME280;52962;51.088;3.096;2022-08-02T04:43:06;101467.13;;;17.35;100.00
66164;BME280;52962;51.088;3.096;2022-08-02T04:45:35;101474.22;;;17.35;100.00
66164;BME280;52962;51.088;3.096;2022-08-02T04:48:05;101472.47;;;17.38;100.00
66164;BME280;52962;51.088;3.096;2022-08-02T04:50:34;101466.25;;;17.39;100.00
66164;BME280;52962;51.088;3.096;2022-08-02T04:53:01;101476.91;;;17.39;100.00
66164;BME280;52962;51.088;3.096;2022-08-02T04:55:29;101478.69;;;17.40;100.00
66164;BME280;52962;51.088;3.096;2022-08-02T04:57:58;101478.69;;;17.43;100.00
66164;BME280;52962;51.088;3.096;2022-08-02T05:00:35;101478.72;;;17.49;100.00
66164;BME280;52962;51.088;3.096;2022-08-02T05:03:03;101475.16;;;17.44;100.00
66164;BME280;52962;51.088;3.096;2022-08-02T05:05:32;101465.38;;;17.45;100.00
66164;BME280;52962;51.088;3.096;2022-08-02T05:08:00;101469.81;;;17.47;100.00
66164;BME280;52962;51.088;3.096;2022-08-02T05:10:28;101458.28;;;17.48;100.00
66164;BME280;52962;51.088;3.096;2022-08-02T05:12:56;101459.19;;;17.50;100.00
66164;BME280;52962;51.088;3.096;2022-08-02T05:15:24;101461.84;;;17.50;100.00
66164;BME280;52962;51.088;3.096;2022-08-02T05:17:58;101453.84;;;17.53;100.00
66164;BME280;52962;51.088;3.096;2022-08-02T05:20:26;101455.63;;;17.56;100.00
66164;BME280;52962;51.088;3.096;2022-08-02T05:22:56;101457.41;;;17.52;100.00
66164;BME280;52962;51.088;3.096;2022-08-02T05:25:23;101459.19;;;17.56;100.00
66164;BME280;52962;51.088;3.096;2022-08-02T05:27:51;101449.44;;;17.58;100.00
66164;BME280;52962;51.088;3.096;2022-08-02T05:30:19;101461.88;;;17.62;100.00
66164;BME280;52962;51.088;3.096;2022-08-02T05:32:48;101463.66;;;17.68;100.00
66164;BME280;52962;51.088;3.096;2022-08-02T05:35:19;101454.78;;;17.71;100.00
66164;BME280;52962;51.088;3.096;2022-08-02T05:37:48;101464.53;;;17.75;100.00
66164;BME280;52962;51.088;3.096;2022-08-02T05:40:18;101466.31;;;17.79;100.00
66164;BME280;52962;51.088;3.096;2022-08-02T05:42:51;101461.88;;;17.79;100.00
66164;BME280;52962;51.088;3.096;2022-08-02T05:45:19;101469.88;;;17.81;100.00
66164;BME280;52962;51.088;3.096;2022-08-02T05:47:47;101476.97;;;17.82;100.00
66164;BME280;52962;51.088;3.096;2022-08-02T05:50:15;101479.66;;;17.83;100.00
66164;BME280;52962;51.088;3.096;2022-08-02T05:52:45;101475.22;;;17.87;100.00
66164;BME280;52962;51.088;3.096;2022-08-02T05:55:21;101476.97;;;17.88;100.00
66164;BME280;52962;51.088;3.096;2022-08-02T05:58:01;101473.44;;;17.92;100.00
66164;BME280;52962;51.088;3.096;2022-08-02T06:00:32;101475.22;;;17.93;100.00
66164;BME280;52962;51.088;3.096;2022-08-02T06:03:13;101475.22;;;17.96;100.00
66164;BME280;52962;51.088;3.096;2022-08-02T06:05:49;101464.56;;;18.08;100.00
66164;BME280;52962;51.088;3.096;2022-08-02T06:08:19;101464.53;;;18.16;100.00
66164;BME280;52962;51.088;3.096;2022-08-02T06:10:50;101460.97;;;18.21;100.00
66164;BME280;52962;51.088;3.096;2022-08-02T06:13:19;101461.88;;;18.28;100.00
66164;BME280;52962;51.088;3.096;2022-08-02T06:15:50;101478.75;;;18.36;100.00
66164;BME280;52962;51.088;3.096;2022-08-02T06:18:19;101475.19;;;18.42;100.00
66164;BME280;52962;51.088;3.096;2022-08-02T06:20:55;101476.94;;;18.52;100.00
66164;BME280;52962;51.088;3.096;2022-08-02T06:23:44;101466.25;;;18.67;100.00
66164;BME280;52962;51.088;3.096;2022-08-02T06:26:26;101468.84;;;18.84;100.00
66164;BME280;52962;51.088;3.096;2022-08-02T06:28:56;101466.97;;;19.07;100.00
66164;BME280;52962;51.088;3.096;2022-08-02T06:31:24;101469.53;;;19.30;100.00
66164;BME280;52962;51.088;3.096;2022-08-02T06:33:52;101452.50;;;19.54;100.00
66164;BME280;52962;51.088;3.096;2022-08-02T06:36:21;101454.94;;;19.80;100.00
66164;BME280;52962;51.088;3.096;2022-08-02T06:38:55;101445.97;;;19.90;100.00
66164;BME280;52962;51.088;3.096;2022-08-02T06:41:30;101454.00;;;19.85;100.00
66164;BME280;52962;51.088;3.096;2022-08-02T06:44:04;101460.28;;;19.80;100.00
66164;BME280;52962;51.088;3.096;2022-08-02T06:46:52;101458.56;;;19.76;100.00
66164;BME280;52962;51.088;3.096;2022-08-02T06:49:39;101456.75;;;19.78;100.00
66164;BME280;52962;51.088;3.096;2022-08-02T06:52:21;101454.06;;;19.78;100.00
66164;BME280;52962;51.088;3.096;2022-08-02T06:54:54;101462.06;;;19.81;100.00
66164;BME280;52962;51.088;3.096;2022-08-02T06:57:23;101468.28;;;19.83;100.00
66164;BME280;52962;51.088;3.096;2022-08-02T06:59:51;101470.09;;;19.79;100.00
66164;BME280;52962;51.088;3.096;2022-08-02T07:02:19;101482.56;;;19.79;100.00
66164;BME280;52962;51.088;3.096;2022-08-02T07:04:47;101475.50;;;19.75;100.00
66164;BME280;52962;51.088;3.096;2022-08-02T07:07:15;101470.09;;;19.81;100.00
66164;BME280;52962;51.088;3.096;2022-08-02T07:09:42;101474.53;;;19.82;100.00
66164;BME280;52962;51.088;3.096;2022-08-02T07:12:23;101475.41;;;19.82;100.00
66164;BME280;52962;51.088;3.096;2022-08-02T07:14:52;101479.88;;;19.82;100.00
66164;BME280;52962;51.088;3.096;2022-08-02T07:17:20;101466.53;;;19.79;100.00
66164;BME280;52962;51.088;3.096;2022-08-02T07:19:47;101471.75;;;19.97;100.00
66164;BME280;52962;51.088;3.096;2022-08-02T07:22:15;101465.22;;;20.29;100.00
66164;BME280;52962;51.088;3.096;2022-08-02T07:24:45;101475.59;;;20.62;100.00
66164;BME280;52962;51.088;3.096;2022-08-02T07:27:13;101465.41;;;20.92;100.00
66164;BME280;52962;51.088;3.096;2022-08-02T07:29:42;101461.50;;;21.18;100.00
66164;BME280;52962;51.088;3.096;2022-08-02T07:32:13;101455.84;;;21.43;100.00
66164;BME280;52962;51.088;3.096;2022-08-02T07:34:41;101460.03;;;21.61;100.00
66164;BME280;52962;51.088;3.096;2022-08-02T07:37:19;101454.59;;;21.67;100.00
66164;BME280;52962;51.088;3.096;2022-08-02T07:40:08;101449.72;;;21.88;100.00
66164;BME280;52962;51.088;3.096;2022-08-02T07:42:41;101463.81;;;22.04;100.00
66164;BME280;52962;51.088;3.096;2022-08-02T07:45:12;101456.38;;;22.20;100.00
66164;BME280;52962;51.088;3.096;2022-08-02T07:47:41;101454.25;;;22.39;100.00
66164;BME280;52962;51.088;3.096;2022-08-02T07:50:11;101453.22;;;22.46;100.00
66164;BME280;52962;51.088;3.096;2022-08-02T07:52:40;101454.75;;;22.59;100.00
66164;BME280;52962;51.088;3.096;2022-08-02T07:55:09;101446.03;;;22.91;100.00
66164;BME280;52962;51.088;3.096;2022-08-02T07:57:38;101443.84;;;23.10;100.00
66164;BME280;52962;51.088;3.096;2022-08-02T08:00:14;101449.63;;;23.32;100.00
66164;BME280;52962;51.088;3.096;2022-08-02T08:02:43;101441.16;;;23.50;100.00
66164;BME280;52962;51.088;3.096;2022-08-02T08:05:12;101440.06;;;23.59;100.00
66164;BME280;52962;51.088;3.096;2022-08-02T08:07:40;101439.56;;;23.80;100.00
66164;BME280;52962;51.088;3.096;2022-08-02T08:10:08;101441.25;;;23.84;100.00
66164;BME280;52962;51.088;3.096;2022-08-02T08:12:36;101441.41;;;24.12;100.00
66164;BME280;52962;51.088;3.096;2022-08-02T08:15:05;101448.94;;;24.33;100.00
66164;BME280;52962;51.088;3.096;2022-08-02T08:17:35;101442.22;;;24.50;100.00
66164;BME280;52962;51.088;3.096;2022-08-02T08:20:04;101439.03;;;24.66;100.00
66164;BME280;52962;51.088;3.096;2022-08-02T08:22:32;101441.00;;;24.61;100.00
66164;BME280;52962;51.088;3.096;2022-08-02T08:25:00;101449.41;;;24.49;100.00
66164;BME280;52962;51.088;3.096;2022-08-02T08:27:29;101445.38;;;24.33;100.00
66164;BME280;52962;51.088;3.096;2022-08-02T08:29:57;101442.44;;;24.06;100.00
66164;BME280;52962;51.088;3.096;2022-08-02T08:32:25;101440.63;;;24.07;100.00
66164;BME280;52962;51.088;3.096;2022-08-02T08:34:54;101445.00;;;24.11;100.00
66164;BME280;52962;51.088;3.096;2022-08-02T08:37:22;101444.28;;;24.40;100.00
66164;BME280;52962;51.088;3.096;2022-08-02T08:39:50;101444.00;;;24.82;100.00
66164;BME280;52962;51.088;3.096;2022-08-02T08:42:23;101440.56;;;25.06;100.00
66164;BME280;52962;51.088;3.096;2022-08-02T08:44:51;101432.97;;;25.20;100.00
66164;BME280;52962;51.088;3.096;2022-08-02T08:47:19;101435.56;;;25.23;100.00
66164;BME280;52962;51.088;3.096;2022-08-02T08:49:51;101437.50;;;25.18;100.00
66164;BME280;52962;51.088;3.096;2022-08-02T08:52:26;101435.38;;;25.29;100.00
66164;BME280;52962;51.088;3.096;2022-08-02T08:54:54;101425.06;;;25.42;100.00
66164;BME280;52962;51.088;3.096;2022-08-02T08:57:25;101432.91;;;25.50;100.00
66164;BME280;52962;51.088;3.096;2022-08-02T08:59:55;101422.41;;;25.70;100.00
66164;BME280;52962;51.088;3.096;2022-08-02T09:02:23;101430.19;;;25.79;100.00
66164;BME280;52962;51.088;3.096;2022-08-02T09:04:54;101427.38;;;25.82;100.00
66164;BME280;52962;51.088;3.096;2022-08-02T09:07:22;101426.47;;;25.83;100.00
66164;BME280;52962;51.088;3.096;2022-08-02T09:09:51;101423.66;;;25.86;100.00
66164;BME280;52962;51.088;3.096;2022-08-02T09:12:20;101424.75;;;25.81;100.00
66164;BME280;52962;51.088;3.096;2022-08-02T09:14:50;101414.59;;;25.61;100.00
66164;BME280;52962;51.088;3.096;2022-08-02T09:17:18;101421.56;;;25.40;100.00
66164;BME280;52962;51.088;3.096;2022-08-02T09:20:04;101423.09;;;25.19;100.00
66164;BME280;52962;51.088;3.096;2022-08-02T09:22:33;101423.56;;;25.04;100.00
66164;BME280;52962;51.088;3.096;2022-08-02T09:25:03;101431.19;;;24.90;100.00
66164;BME280;52962;51.088;3.096;2022-08-02T09:27:34;101438.91;;;24.71;100.00
66164;BME280;52962;51.088;3.096;2022-08-02T09:30:04;101445.06;;;24.76;100.00
66164;BME280;52962;51.088;3.096;2022-08-02T09:32:43;101440.84;;;24.97;100.00
66164;BME280;52962;51.088;3.096;2022-08-02T09:35:11;101433.84;;;25.21;100.00
66164;BME280;52962;51.088;3.096;2022-08-02T09:37:40;101438.41;;;25.19;100.00
66164;BME280;52962;51.088;3.096;2022-08-02T09:40:15;101431.84;;;25.27;100.00
66164;BME280;52962;51.088;3.096;2022-08-02T09:42:57;101432.38;;;25.38;100.00
66164;BME280;52962;51.088;3.096;2022-08-02T09:45:29;101435.66;;;25.48;100.00
66164;BME280;52962;51.088;3.096;2022-08-02T09:47:58;101429.50;;;25.45;100.00
66164;BME280;52962;51.088;3.096;2022-08-02T09:50:25;101439.63;;;25.36;100.00
66164;BME280;52962;51.088;3.096;2022-08-02T09:52:54;101444.34;;;25.58;100.00
66164;BME280;52962;51.088;3.096;2022-08-02T09:55:25;101442.47;;;25.60;100.00
66164;BME280;52962;51.088;3.096;2022-08-02T09:57:53;101437.25;;;25.55;100.00
66164;BME280;52962;51.088;3.096;2022-08-02T10:00:21;101455.50;;;25.75;100.00
66164;BME280;52962;51.088;3.096;2022-08-02T10:03:10;101445.59;;;25.76;100.00
66164;BME280;52962;51.088;3.096;2022-08-02T10:05:49;101449.66;;;25.61;100.00
66164;BME280;52962;51.088;3.096;2022-08-02T10:08:21;101445.69;;;25.72;100.00
66164;BME280;52962;51.088;3.096;2022-08-02T10:10:51;101438.91;;;25.87;100.00
66164;BME280;52962;51.088;3.096;2022-08-02T10:13:27;101446.41;;;26.04;100.00
66164;BME280;52962;51.088;3.096;2022-08-02T10:15:55;101442.34;;;26.17;100.00
66164;BME280;52962;51.088;3.096;2022-08-02T10:18:23;101429.56;;;26.22;100.00
66164;BME280;52962;51.088;3.096;2022-08-02T10:21:06;101434.19;;;26.19;100.00
66164;BME280;52962;51.088;3.096;2022-08-02T10:23:35;101431.66;;;26.14;100.00
66164;BME280;52962;51.088;3.096;2022-08-02T10:26:07;101419.41;;;26.04;100.00
66164;BME280;52962;51.088;3.096;2022-08-02T10:28:35;101420.97;;;26.11;100.00
66164;BME280;52962;51.088;3.096;2022-08-02T10:31:05;101426.78;;;26.25;100.00
66164;BME280;52962;51.088;3.096;2022-08-02T10:33:35;101418.91;;;26.44;100.00
66164;BME280;52962;51.088;3.096;2022-08-02T10:36:05;101428.84;;;26.44;100.00
66164;BME280;52962;51.088;3.096;2022-08-02T10:38:35;101421.78;;;26.39;100.00
66164;BME280;52962;51.088;3.096;2022-08-02T10:41:03;101426.66;;;26.28;100.00
66164;BME280;52962;51.088;3.096;2022-08-02T10:43:43;101422.19;;;26.27;100.00
66164;BME280;52962;51.088;3.096;2022-08-02T10:46:29;101423.78;;;26.34;100.00
66164;BME280;52962;51.088;3.096;2022-08-02T10:49:09;101412.75;;;26.41;100.00
66164;BME280;52962;51.088;3.096;2022-08-02T10:52:07;101421.50;;;26.47;100.00
66164;BME280;52962;51.088;3.096;2022-08-02T10:54:39;101414.94;;;26.54;100.00
66164;BME280;52962;51.088;3.096;2022-08-02T10:57:15;101406.44;;;26.65;100.00
66164;BME280;52962;51.088;3.096;2022-08-02T10:59:45;101406.03;;;26.76;100.00
66164;BME280;52962;51.088;3.096;2022-08-02T11:02:32;101412.38;;;26.75;100.00
66164;BME280;52962;51.088;3.096;2022-08-02T11:07:46;101415.38;;;26.90;100.00
66164;BME280;52962;51.088;3.096;2022-08-02T11:10:33;101417.97;;;26.93;100.00
66164;BME280;52962;51.088;3.096;2022-08-02T11:13:07;101402.59;;;26.95;100.00
66164;BME280;52962;51.088;3.096;2022-08-02T11:15:52;101413.91;;;27.05;100.00
66164;BME280;52962;51.088;3.096;2022-08-02T11:21:21;101407.34;;;27.12;100.00
66164;BME280;52962;51.088;3.096;2022-08-02T11:23:50;101404.56;;;27.14;100.00
66164;BME280;52962;51.088;3.096;2022-08-02T11:26:45;101400.88;;;27.16;100.00
66164;BME280;52962;51.088;3.096;2022-08-02T11:29:12;101398.34;;;27.12;100.00
66164;BME280;52962;51.088;3.096;2022-08-02T11:31:44;101405.44;;;27.14;100.00
66164;BME280;52962;51.088;3.096;2022-08-02T11:34:13;101403.91;;;27.30;100.00
66164;BME280;52962;51.088;3.096;2022-08-02T11:37:02;101397.41;;;27.34;100.00
66164;BME280;52962;51.088;3.096;2022-08-02T11:39:30;101397.78;;;27.25;100.00
66164;BME280;52962;51.088;3.096;2022-08-02T11:41:59;101397.16;;;27.19;100.00
66164;BME280;52962;51.088;3.096;2022-08-02T11:44:29;101395.03;;;27.27;100.00
66164;BME280;52962;51.088;3.096;2022-08-02T11:47:07;101396.91;;;27.25;100.00
66164;BME280;52962;51.088;3.096;2022-08-02T11:49:36;101387.03;;;27.24;100.00
66164;BME280;52962;51.088;3.096;2022-08-02T11:52:05;101397.66;;;27.28;100.00
66164;BME280;52962;51.088;3.096;2022-08-02T11:54:38;101397.41;;;27.34;100.00
66164;BME280;52962;51.088;3.096;2022-08-02T11:57:11;101404.47;;;27.39;100.00
66164;BME280;52962;51.088;3.096;2022-08-02T11:59:46;101396.34;;;27.39;100.00
66164;BME280;52962;51.088;3.096;2022-08-02T12:02:16;101400.63;;;27.44;100.00
66164;BME280;52962;51.088;3.096;2022-08-02T12:04:51;101388.00;;;27.45;100.00
66164;BME280;52962;51.088;3.096;2022-08-02T12:07:27;101386.59;;;27.34;100.00
66164;BME280;52962;51.088;3.096;2022-08-02T12:10:03;101387.84;;;27.26;100.00
66164;BME280;52962;51.088;3.096;2022-08-02T12:12:32;101397.53;;;27.31;100.00
66164;BME280;52962;51.088;3.096;2022-08-02T12:15:00;101392.25;;;27.28;100.00
66164;BME280;52962;51.088;3.096;2022-08-02T12:17:29;101396.34;;;27.39;100.00
66164;BME280;52962;51.088;3.096;2022-08-02T12:20:35;101392.53;;;27.44;100.00
66164;BME280;52962;51.088;3.096;2022-08-02T12:23:03;101388.44;;;27.56;100.00
66164;BME280;52962;51.088;3.096;2022-08-02T12:25:31;101395.19;;;27.67;100.00
66164;BME280;52962;51.088;3.096;2022-08-02T12:28:15;101394.38;;;27.65;100.00
66164;BME280;52962;51.088;3.096;2022-08-02T12:30:51;101390.59;;;27.70;100.00
66164;BME280;52962;51.088;3.096;2022-08-02T12:33:21;101397.25;;;27.83;100.00
66164;BME280;52962;51.088;3.096;2022-08-02T12:35:50;101384.72;;;27.80;100.00
66164;BME280;52962;51.088;3.096;2022-08-02T12:38:18;101390.22;;;27.79;100.00
66164;BME280;52962;51.088;3.096;2022-08-02T12:40:46;101387.44;;;27.80;100.00
66164;BME280;52962;51.088;3.096;2022-08-02T12:43:16;101385.53;;;27.82;100.00
66164;BME280;52962;51.088;3.096;2022-08-02T12:45:47;101377.16;;;27.88;100.00
66164;BME280;52962;51.088;3.096;2022-08-02T12:48:30;101363.28;;;27.96;100.00
66164;BME280;52962;51.088;3.096;2022-08-02T12:51:18;101364.97;;;28.19;100.00
66164;BME280;52962;51.088;3.096;2022-08-02T12:53:46;101358.06;;;28.32;100.00
66164;BME280;52962;51.088;3.096;2022-08-02T12:56:27;101354.00;;;28.42;100.00
66164;BME280;52962;51.088;3.096;2022-08-02T12:58:55;101359.81;;;28.53;100.00
66164;BME280;52962;51.088;3.096;2022-08-02T13:01:24;101353.50;;;28.53;100.00
66164;BME280;52962;51.088;3.096;2022-08-02T13:03:54;101354.66;;;28.47;100.00
66164;BME280;52962;51.088;3.096;2022-08-02T13:06:38;101347.63;;;28.43;100.00
66164;BME280;52962;51.088;3.096;2022-08-02T13:09:14;101352.63;;;28.52;100.00
66164;BME280;52962;51.088;3.096;2022-08-02T13:11:43;101343.47;;;28.55;100.00